createdAt,value
2018-06-25T00:01:48.864Z,52.10
2018-06-25T00:05:22.083Z,52.30
2018-06-25T00:08:56.156Z,52.50
2018-06-25T00:12:29.413Z,52.80
2018-06-25T00:16:02.694Z,52.80
2018-06-25T00:19:35.951Z,53.10
2018-06-25T00:23:09.191Z,53.30
2018-06-25T00:26:42.456Z,53.40
2018-06-25T00:30:15.810Z,53.50
2018-06-25T00:33:49.059Z,53.60
2018-06-25T00:37:22.279Z,53.80
2018-06-25T00:40:55.548Z,54.20
2018-06-25T00:44:28.809Z,54.40
2018-06-25T00:48:02.100Z,54.80
2018-06-25T00:51:35.368Z,55.10
2018-06-25T00:58:53.088Z,55.50
2018-06-25T01:02:26.391Z,55.60
2018-06-25T01:05:59.692Z,55.60
2018-06-25T01:09:32.919Z,55.60
2018-06-25T01:13:06.197Z,55.70
2018-06-25T01:16:39.480Z,56.30
2018-06-25T01:20:12.765Z,55.60
2018-06-25T01:23:46.055Z,55.80
2018-06-25T01:27:19.349Z,55.90
2018-06-25T01:30:52.611Z,56.00
2018-06-25T01:34:26.049Z,56.10
2018-06-25T01:41:32.333Z,56.40
2018-06-25T01:48:38.816Z,56.50
2018-06-25T01:52:12.088Z,56.70
2018-06-25T01:55:45.331Z,56.90
2018-06-25T01:59:18.580Z,57.80
2018-06-25T02:02:52.798Z,57.30
2018-06-25T02:06:26.176Z,57.40
2018-06-25T02:09:59.432Z,57.50
2018-06-25T02:13:32.701Z,57.60
2018-06-25T02:17:05.963Z,57.80
2018-06-25T02:20:39.220Z,57.80
2018-06-25T02:24:12.484Z,58.00
2018-06-25T02:27:45.859Z,58.10
2018-06-25T02:31:19.120Z,58.10
2018-06-25T02:34:52.523Z,58.20
2018-06-25T02:38:25.889Z,58.10
2018-06-25T02:41:59.168Z,58.00
2018-06-25T02:49:05.444Z,58.30
2018-06-25T02:52:38.749Z,58.50
2018-06-25T02:56:12.048Z,58.50
2018-06-25T02:59:45.805Z,58.60
2018-06-25T03:03:19.103Z,58.60
2018-06-25T03:06:52.406Z,58.80
2018-06-25T03:10:25.944Z,58.90
2018-06-25T03:13:59.237Z,59.10
2018-06-25T03:17:32.496Z,59.40
2018-06-25T03:21:05.794Z,59.60
2018-06-25T03:28:12.057Z,60.00
2018-06-25T03:31:45.373Z,60.00
2018-06-25T03:35:18.752Z,60.00
2018-06-25T03:38:52.046Z,60.00
2018-06-25T03:42:25.302Z,60.00
2018-06-25T03:45:58.565Z,60.10
2018-06-25T03:49:32.149Z,60.60
2018-06-25T03:53:05.685Z,60.60
2018-06-25T03:56:39.076Z,61.00
2018-06-25T04:00:13.012Z,61.90
2018-06-25T04:07:19.481Z,62.20
2018-06-25T04:10:52.745Z,62.00
2018-06-25T04:14:26.143Z,61.50
2018-06-25T04:17:59.451Z,61.10
2018-06-25T04:21:34.235Z,60.80
2018-06-25T04:25:07.564Z,61.00
2018-06-25T04:32:13.853Z,61.30
2018-06-25T04:35:47.137Z,61.00
2018-06-25T04:39:20.428Z,60.80
2018-06-25T04:42:53.832Z,60.70
2018-06-25T04:46:27.109Z,60.50
2018-06-25T04:50:00.427Z,60.10
2018-06-25T04:53:33.687Z,59.80
2018-06-25T04:57:06.946Z,59.60
2018-06-25T05:00:40.224Z,59.50
2018-06-25T05:04:13.476Z,59.50
2018-06-25T05:07:46.863Z,59.50
2018-06-25T05:11:20.147Z,59.70
2018-06-25T05:14:53.589Z,59.80
2018-06-25T05:18:26.888Z,59.90
2018-06-25T05:22:00.152Z,60.10
2018-06-25T05:25:33.592Z,60.50
2018-06-25T05:29:06.852Z,60.70
2018-06-25T05:32:40.135Z,60.60
2018-06-25T05:36:13.465Z,61.00
2018-06-25T05:39:46.956Z,60.60
2018-06-25T05:43:20.253Z,60.10
2018-06-25T05:46:53.571Z,60.90
2018-06-25T05:50:26.928Z,60.90
2018-06-25T05:54:00.220Z,60.90
2018-06-25T05:57:33.631Z,60.70
2018-06-25T06:01:06.977Z,60.50
2018-06-25T06:04:40.265Z,60.00
2018-06-25T06:08:13.560Z,59.20
2018-06-25T06:11:46.894Z,58.40
2018-06-25T06:18:53.246Z,57.20
2018-06-25T06:22:26.841Z,57.20
2018-06-25T06:26:00.121Z,57.60
2018-06-25T06:29:33.430Z,57.80
2018-06-25T06:33:07.101Z,57.50
2018-06-25T06:36:41.488Z,57.40
2018-06-25T06:40:14.789Z,57.40
2018-06-25T06:43:48.195Z,57.40
2018-06-25T06:47:21.520Z,57.40
2018-06-25T06:50:54.826Z,57.00
2018-06-25T06:54:28.445Z,56.70
2018-06-25T06:58:01.784Z,56.60
2018-06-25T07:01:35.179Z,56.70
2018-06-25T07:05:08.531Z,56.30
2018-06-25T07:08:42.113Z,56.00
2018-06-25T07:12:15.446Z,55.80
2018-06-25T07:15:48.814Z,55.40
2018-06-25T07:19:22.177Z,55.10
2018-06-25T07:22:55.510Z,55.00
2018-06-25T07:26:28.857Z,55.00
2018-06-25T07:30:02.337Z,55.40
2018-06-25T07:33:35.637Z,54.70
2018-06-25T07:37:09.018Z,55.10
2018-06-25T07:40:42.369Z,55.30
2018-06-25T07:44:15.693Z,55.00
2018-06-25T07:47:49.047Z,54.60
2018-06-25T07:51:22.457Z,53.90
2018-06-25T07:54:55.832Z,53.50
2018-06-25T07:58:29.135Z,52.80
2018-06-25T08:02:02.478Z,52.20
2018-06-25T08:05:35.910Z,52.00
2018-06-25T08:12:43.151Z,52.40
2018-06-25T08:16:16.526Z,52.50
2018-06-25T08:19:49.842Z,51.70
2018-06-25T08:23:23.202Z,51.90
2018-06-25T08:26:56.525Z,52.20
2018-06-25T08:30:29.933Z,52.80
2018-06-25T08:37:36.344Z,52.50
2018-06-25T08:41:09.858Z,51.60
2018-06-25T08:44:43.217Z,51.00
2018-06-25T08:48:16.639Z,50.20
2018-06-25T08:51:50.534Z,50.10
2018-06-25T08:55:23.956Z,50.00
2018-06-25T08:58:57.306Z,49.60
2018-06-25T09:02:30.653Z,50.40
2018-06-25T09:06:04.024Z,49.40
2018-06-25T09:09:37.521Z,49.20
2018-06-25T09:13:10.835Z,48.60
2018-06-25T09:16:44.186Z,48.40
2018-06-25T09:20:17.523Z,48.10
2018-06-25T09:23:50.923Z,47.90
2018-06-25T09:27:24.303Z,48.20
2018-06-25T09:30:57.645Z,48.30
2018-06-25T09:34:36.260Z,48.10
2018-06-25T09:38:09.627Z,47.70
2018-06-25T09:41:43.142Z,47.40
2018-06-25T09:45:16.306Z,47.50
2018-06-25T09:48:49.642Z,47.80
2018-06-25T09:52:23.113Z,47.90
2018-06-25T09:55:56.457Z,47.70
2018-06-25T09:59:29.803Z,47.00
2018-06-25T10:03:03.149Z,46.90
2018-06-25T10:06:36.532Z,46.10
2018-06-25T10:10:09.818Z,45.20
2018-06-25T10:13:43.396Z,45.60
2018-06-25T10:17:16.720Z,45.00
2018-06-25T10:20:50.038Z,44.50
2018-06-25T10:24:23.402Z,43.30
2018-06-25T10:27:56.785Z,43.20
2018-06-25T10:31:30.109Z,43.60
2018-06-25T10:35:03.615Z,43.80
2018-06-25T10:38:36.957Z,43.40
2018-06-25T10:42:10.454Z,43.10
2018-06-25T10:45:43.716Z,43.50
2018-06-25T10:49:17.033Z,44.60
2018-06-25T10:52:50.465Z,45.00
2018-06-25T10:56:23.834Z,45.30
2018-06-25T10:59:57.320Z,45.30
2018-06-25T11:03:30.544Z,45.10
2018-06-25T11:07:04.031Z,45.30
2018-06-25T11:10:37.436Z,45.00
2018-06-25T11:14:10.885Z,44.70
2018-06-25T11:17:44.245Z,44.20
2018-06-25T11:21:17.597Z,42.80
2018-06-25T11:28:24.884Z,42.40
2018-06-25T11:31:58.252Z,41.90
2018-06-25T11:35:31.628Z,40.70
2018-06-25T11:42:40.174Z,40.30
2018-06-25T11:46:13.530Z,40.40
2018-06-25T11:49:46.858Z,40.30
2018-06-25T11:53:20.198Z,40.30
2018-06-25T11:56:53.617Z,40.30
2018-06-25T12:00:27.013Z,40.10
2018-06-25T12:04:00.412Z,40.10
2018-06-25T12:07:33.791Z,39.70
2018-06-25T12:11:07.125Z,39.70
2018-06-25T12:14:40.540Z,39.50
2018-06-25T12:18:13.865Z,39.20
2018-06-25T12:21:47.251Z,39.00
2018-06-25T12:25:20.597Z,38.90
2018-06-25T12:36:01.269Z,40.70
2018-06-25T12:39:36.145Z,40.50
2018-06-25T12:43:09.564Z,40.20
2018-06-25T12:50:16.153Z,39.50
2018-06-25T12:53:49.576Z,38.40
2018-06-25T12:57:22.953Z,37.60
2018-06-25T13:00:56.374Z,38.00
2018-06-25T13:04:29.700Z,38.40
2018-06-25T13:08:03.145Z,38.30
2018-06-25T13:11:36.621Z,38.50
2018-06-25T13:15:10.014Z,38.40
2018-06-25T13:18:43.437Z,38.40
2018-06-25T13:22:16.808Z,38.30
2018-06-25T13:25:50.141Z,38.40
2018-06-25T13:29:23.534Z,37.30
2018-06-25T13:32:56.885Z,37.10
2018-06-25T13:36:30.320Z,36.70
2018-06-25T13:40:03.926Z,36.40
2018-06-25T13:43:37.276Z,35.70
2018-06-25T13:47:10.822Z,35.10
2018-06-25T13:50:44.225Z,34.90
2018-06-25T13:57:50.689Z,35.40
2018-06-25T14:01:23.976Z,34.60
2018-06-25T14:04:57.524Z,33.70
2018-06-25T14:08:30.870Z,33.40
2018-06-25T14:12:04.267Z,34.20
2018-06-25T14:15:37.836Z,34.80
2018-06-25T14:19:11.217Z,35.80
2018-06-25T14:22:44.612Z,36.50
2018-06-25T14:26:17.953Z,36.90
2018-06-25T14:29:51.366Z,37.10
2018-06-25T14:33:30.035Z,36.70
2018-06-25T14:37:03.467Z,35.70
2018-06-25T14:40:37.099Z,33.10
2018-06-25T14:44:10.510Z,32.50
2018-06-25T14:47:43.860Z,32.40
2018-06-25T14:51:17.354Z,33.10
2018-06-25T14:54:50.781Z,33.30
2018-06-25T14:58:24.223Z,34.00
2018-06-25T15:01:57.762Z,34.70
2018-06-25T15:05:31.110Z,34.50
2018-06-25T15:09:08.013Z,33.50
2018-06-25T15:12:41.489Z,33.10
2018-06-25T15:19:48.093Z,32.90
2018-06-25T15:23:21.644Z,32.60
2018-06-25T15:26:55.073Z,32.00
2018-06-25T15:30:28.449Z,31.80
2018-06-25T15:34:01.947Z,32.40
2018-06-25T15:37:35.319Z,32.80
2018-06-25T15:41:08.709Z,33.20
2018-06-25T15:44:42.088Z,33.20
2018-06-25T15:48:15.489Z,31.90
2018-06-25T15:51:48.860Z,31.10
2018-06-25T15:58:55.938Z,32.30
2018-06-25T16:02:29.337Z,32.60
2018-06-25T16:06:02.742Z,32.30
2018-06-25T16:09:36.177Z,31.80
2018-06-25T16:16:42.637Z,30.10
2018-06-25T16:20:16.080Z,29.70
2018-06-25T16:23:49.524Z,28.80
2018-06-25T16:27:22.938Z,28.40
2018-06-25T16:30:56.405Z,28.70
2018-06-25T16:38:02.869Z,29.70
2018-06-25T16:41:36.221Z,30.00
2018-06-25T16:45:09.556Z,30.00
2018-06-25T16:48:42.945Z,30.20
2018-06-25T16:52:16.293Z,30.60
2018-06-25T16:55:49.695Z,31.20
2018-06-25T16:59:23.050Z,31.60
2018-06-25T17:02:56.410Z,32.40
2018-06-25T17:06:29.908Z,33.20
2018-06-25T17:10:03.285Z,33.40
2018-06-25T17:13:36.637Z,34.00
2018-06-25T17:17:10.021Z,34.50
2018-06-25T17:20:43.448Z,34.50
2018-06-25T17:24:16.831Z,34.90
2018-06-25T17:27:50.249Z,35.10
2018-06-25T17:31:23.605Z,35.30
2018-06-25T17:34:57.281Z,35.50
2018-06-25T17:38:30.627Z,35.70
2018-06-25T17:42:04.005Z,35.90
2018-06-25T17:45:37.387Z,36.40
2018-06-25T17:49:10.733Z,36.40
2018-06-25T17:52:44.081Z,36.60
2018-06-25T17:56:17.377Z,36.90
2018-06-25T17:59:50.882Z,36.90
2018-06-25T18:03:24.302Z,37.00
2018-06-25T18:06:58.234Z,37.10
2018-06-25T18:10:31.917Z,37.00
2018-06-25T18:14:05.351Z,36.90
2018-06-25T18:17:39.605Z,36.90
2018-06-25T18:21:12.937Z,36.70
2018-06-25T18:24:46.268Z,36.70
2018-06-25T18:28:19.665Z,37.00
2018-06-25T18:31:53.130Z,37.30
2018-06-25T18:38:59.601Z,38.00
2018-06-25T18:42:33.049Z,38.10
2018-06-25T18:46:06.421Z,38.50
2018-06-25T18:49:39.767Z,38.90
2018-06-25T18:53:13.104Z,39.20
2018-06-25T18:56:46.396Z,39.40
2018-06-25T19:00:20.041Z,39.60
2018-06-25T19:03:53.865Z,39.80
2018-06-25T19:07:27.124Z,40.20
2018-06-25T19:11:00.385Z,40.30
2018-06-25T19:14:33.697Z,40.70
2018-06-25T19:18:07.972Z,40.90
2018-06-25T19:21:41.273Z,41.10
2018-06-25T19:25:14.532Z,41.20
2018-06-25T19:28:47.899Z,41.40
2018-06-25T19:32:21.748Z,41.50
2018-06-25T19:35:55.336Z,41.60
2018-06-25T19:39:28.689Z,41.80
2018-06-25T19:43:02.005Z,41.80
2018-06-25T19:46:35.371Z,42.10
2018-06-25T19:50:08.616Z,42.30
2018-06-25T19:53:41.970Z,42.60
2018-06-25T19:57:16.124Z,42.90
2018-06-25T20:00:49.453Z,43.30
2018-06-25T20:04:22.850Z,43.50
2018-06-25T20:07:56.132Z,43.90
2018-06-25T20:11:29.445Z,44.10
2018-06-25T20:15:02.697Z,44.30
2018-06-25T20:18:35.968Z,44.70
2018-06-25T20:22:09.331Z,45.00
2018-06-25T20:25:42.676Z,45.30
2018-06-25T20:29:15.981Z,45.60
2018-06-25T20:32:49.402Z,45.90
2018-06-25T20:36:22.676Z,46.10
2018-06-25T20:39:55.947Z,46.40
2018-06-25T20:43:29.261Z,46.50
2018-06-25T20:47:02.545Z,46.90
2018-06-25T20:50:35.906Z,47.00
2018-06-25T20:54:10.518Z,47.50
2018-06-25T20:57:43.764Z,47.70
2018-06-25T21:01:17.000Z,47.90
2018-06-25T21:08:23.480Z,47.90
2018-06-25T21:11:56.779Z,47.80
2018-06-25T21:15:30.146Z,47.80
2018-06-25T21:19:03.613Z,47.80
2018-06-25T21:22:36.889Z,47.70
2018-06-25T21:26:10.155Z,47.60
2018-06-25T21:29:43.625Z,47.70
2018-06-25T21:33:17.292Z,47.80
2018-06-25T21:36:50.622Z,47.90
2018-06-25T21:43:57.048Z,48.10
2018-06-25T21:47:30.738Z,48.20
2018-06-25T21:51:03.959Z,48.40
2018-06-25T21:54:37.356Z,48.60
2018-06-25T21:58:10.600Z,48.70
2018-06-25T22:01:45.140Z,48.90
2018-06-25T22:05:18.447Z,49.10
2018-06-25T22:08:51.729Z,49.30
2018-06-25T22:12:25.008Z,49.50
2018-06-25T22:15:58.291Z,49.70
2018-06-25T22:19:31.562Z,49.70
2018-06-25T22:23:04.893Z,49.90
2018-06-25T22:26:38.213Z,50.40
2018-06-25T22:30:11.503Z,50.40
2018-06-25T22:33:44.780Z,50.60
2018-06-25T22:44:24.014Z,51.10
2018-06-25T22:47:57.275Z,51.30
2018-06-25T22:51:30.532Z,51.50
2018-06-25T22:55:03.832Z,51.50
2018-06-25T22:58:37.164Z,51.60
2018-06-25T23:02:10.441Z,51.70
2018-06-25T23:05:43.713Z,51.90
2018-06-25T23:09:16.985Z,52.20
2018-06-25T23:12:50.339Z,52.30
2018-06-25T23:16:23.593Z,52.50
2018-06-25T23:19:57.095Z,52.60
2018-06-25T23:23:30.359Z,52.80
2018-06-25T23:27:03.609Z,52.80
2018-06-25T23:30:36.899Z,53.00
2018-06-25T23:34:10.183Z,53.10
2018-06-25T23:37:43.430Z,53.20
2018-06-25T23:41:16.721Z,53.40
2018-06-25T23:44:49.988Z,53.50
2018-06-25T23:48:23.255Z,53.70
2018-06-25T23:51:56.526Z,53.80
2018-06-25T23:55:29.827Z,53.80
2018-06-25T23:59:03.079Z,53.90
